Time;durP1;ratioP1;P1;durP2;ratioP2;P2;SDS_P1;SDS_P2;PMS_P1;PMS_P2;Temp;Humidity;BMP_temperature;BMP_pressure;BME280_temperature;BME280_humidity;BME280_pressure;Samples;Min_cycle;Max_cycle;Signal;HPM_P1;HPM_P2
2021/04/18 00:00:01;;;;;;;8.83;8.03;;;5.10;99.90;;;;;;4951935;28;20510;-85
2021/04/18 00:02:26;;;;;;;8.87;8.00;;;5.20;99.90;;;;;;4947059;28;20616;-85
2021/04/18 00:04:52;;;;;;;9.43;8.63;;;5.20;99.90;;;;;;4954109;28;20532;-85
2021/04/18 00:07:18;;;;;;;8.33;7.50;;;5.10;99.90;;;;;;4967637;28;20231;-85
2021/04/18 00:09:44;;;;;;;8.70;7.90;;;5.00;99.90;;;;;;4953453;28;20452;-85
2021/04/18 00:12:10;;;;;;;8.03;7.23;;;5.00;99.90;;;;;;4964058;28;20603;-85
2021/04/18 00:14:37;;;;;;;9.77;8.83;;;5.10;99.90;;;;;;4962726;28;20453;-85
2021/04/18 00:17:03;;;;;;;7.90;7.20;;;5.00;99.90;;;;;;4956474;28;20453;-84
2021/04/18 00:19:33;;;;;;;8.27;7.60;;;5.00;99.90;;;;;;4958188;28;20569;-85
2021/04/18 00:21:59;;;;;;;7.33;6.73;;;5.10;99.90;;;;;;4951649;28;20807;-84
2021/04/18 00:24:24;;;;;;;7.70;7.00;;;5.10;99.90;;;;;;4952014;28;20461;-84
2021/04/18 00:26:50;;;;;;;7.43;6.73;;;5.20;99.90;;;;;;4966959;28;20367;-84
2021/04/18 00:29:16;;;;;;;8.20;7.43;;;5.30;99.90;;;;;;4954863;28;20206;-84
2021/04/18 00:31:41;;;;;;;7.80;7.07;;;5.30;99.90;;;;;;4955726;28;20202;-84
2021/04/18 00:34:07;;;;;;;7.77;7.10;;;5.20;99.90;;;;;;4944127;28;20290;-84
2021/04/18 00:36:33;;;;;;;8.70;7.40;;;5.10;99.90;;;;;;4949142;28;20680;-84
2021/04/18 00:38:58;;;;;;;7.87;7.17;;;5.10;99.90;;;;;;4942899;28;20199;-83
2021/04/18 00:41:25;;;;;;;7.07;6.37;;;5.10;99.90;;;;;;4951227;28;20478;-83
2021/04/18 00:43:51;;;;;;;7.00;6.30;;;5.10;99.90;;;;;;4970189;28;20505;-85
2021/04/18 00:46:16;;;;;;;7.23;6.57;;;5.10;99.90;;;;;;4967459;28;20445;-85
2021/04/18 00:48:44;;;;;;;7.10;6.50;;;5.20;99.90;;;;;;4958182;28;20481;-85
2021/04/18 00:51:25;;;;;;;6.60;6.00;;;5.20;99.90;;;;;;4949527;28;20202;-85
2021/04/18 00:53:51;;;;;;;7.00;6.10;;;5.20;99.90;;;;;;4964638;28;20498;-84
2021/04/18 00:56:18;;;;;;;6.47;5.97;;;5.10;99.90;;;;;;4967249;28;20445;-85
2021/04/18 00:58:45;;;;;;;7.13;6.43;;;5.00;99.90;;;;;;4970241;28;20665;-86
2021/04/18 01:01:10;;;;;;;7.50;6.80;;;4.90;99.90;;;;;;4965322;28;20584;-84
2021/04/18 01:03:36;;;;;;;6.63;6.03;;;4.90;99.90;;;;;;4953140;28;20511;-84
2021/04/18 01:06:03;;;;;;;6.30;5.70;;;4.90;99.90;;;;;;4957206;28;20213;-84
2021/04/18 01:08:29;;;;;;;6.10;5.60;;;4.90;99.90;;;;;;4964633;28;20225;-84
2021/04/18 01:10:55;;;;;;;6.47;5.87;;;4.90;99.90;;;;;;4965239;28;20510;-84
2021/04/18 01:13:21;;;;;;;6.57;5.90;;;4.90;99.90;;;;;;4966707;28;20197;-84
2021/04/18 01:15:47;;;;;;;7.50;6.80;;;4.90;99.90;;;;;;4967933;28;20448;-84
2021/04/18 01:18:13;;;;;;;7.37;6.77;;;4.80;99.90;;;;;;4946315;28;20556;-84
2021/04/18 01:20:39;;;;;;;7.50;6.87;;;4.80;99.90;;;;;;4965717;28;20191;-85
2021/04/18 01:23:05;;;;;;;7.97;7.20;;;4.80;99.90;;;;;;4954766;28;20587;-84
2021/04/18 01:25:33;;;;;;;7.03;6.40;;;4.80;99.90;;;;;;4969295;28;20454;-85
2021/04/18 01:28:14;;;;;;;7.27;6.67;;;4.80;99.90;;;;;;4948770;28;20240;-84
2021/04/18 01:30:48;;;;;;;6.90;6.30;;;4.80;99.90;;;;;;4960374;28;20454;-85
2021/04/18 01:33:25;;;;;;;6.53;6.03;;;4.80;99.90;;;;;;4967785;28;20976;-85
2021/04/18 01:35:52;;;;;;;7.10;6.40;;;4.80;99.90;;;;;;4967757;28;20448;-85
2021/04/18 01:38:18;;;;;;;7.03;6.43;;;4.80;99.90;;;;;;4966439;28;20811;-85
2021/04/18 01:40:44;;;;;;;9.00;8.10;;;4.80;99.90;;;;;;4948629;28;20441;-85
2021/04/18 01:46:15;;;;;;;7.50;6.80;;;4.70;99.90;;;;;;4966466;28;20490;-85
2021/04/18 01:48:53;;;;;;;9.43;7.80;;;4.70;99.90;;;;;;4966119;28;20480;-85
2021/04/18 01:51:20;;;;;;;8.23;7.43;;;4.60;99.90;;;;;;4965184;28;21062;-85
2021/04/18 01:53:46;;;;;;;9.60;8.00;;;4.60;99.90;;;;;;4953764;28;20444;-85
2021/04/18 01:56:14;;;;;;;8.93;8.13;;;4.50;99.90;;;;;;4970181;28;20923;-86
2021/04/18 01:58:39;;;;;;;8.50;7.70;;;4.50;99.90;;;;;;4956112;28;20201;-86
2021/04/18 02:01:05;;;;;;;9.20;8.40;;;4.50;99.90;;;;;;4950625;28;20865;-86
2021/04/18 02:03:31;;;;;;;8.00;7.30;;;4.50;99.90;;;;;;4970757;28;20211;-87
2021/04/18 02:05:56;;;;;;;8.00;7.30;;;4.60;99.90;;;;;;4949052;28;20206;-86
2021/04/18 02:08:22;;;;;;;7.60;6.80;;;4.60;99.90;;;;;;4949311;28;20221;-85
2021/04/18 02:10:48;;;;;;;6.40;5.77;;;4.60;99.90;;;;;;4969785;28;20740;-86
2021/04/18 02:13:15;;;;;;;7.33;6.63;;;4.70;99.90;;;;;;4968873;28;20224;-86
2021/04/18 02:15:41;;;;;;;7.40;6.70;;;4.70;99.90;;;;;;4970020;28;20197;-85
2021/04/18 02:18:07;;;;;;;6.90;6.33;;;4.60;99.90;;;;;;4969528;28;20460;-85
2021/04/18 02:20:32;;;;;;;8.03;7.33;;;4.50;99.90;;;;;;4929698;28;20194;-85
2021/04/18 02:22:58;;;;;;;7.80;7.10;;;4.50;99.90;;;;;;4969017;28;20280;-86
2021/04/18 02:25:24;;;;;;;7.20;6.50;;;4.50;99.90;;;;;;4971942;28;20281;-87
2021/04/18 02:27:51;;;;;;;8.20;7.40;;;4.50;99.90;;;;;;4966676;28;21013;-87
2021/04/18 02:30:18;;;;;;;7.50;6.90;;;4.50;99.90;;;;;;4966889;28;20201;-86
2021/04/18 02:32:44;;;;;;;7.53;6.93;;;4.50;99.90;;;;;;4948088;28;20869;-86
2021/04/18 02:35:32;;;;;;;8.40;7.00;;;4.40;99.90;;;;;;4962866;28;20468;-86
2021/04/18 02:38:04;;;;;;;7.33;6.73;;;4.40;99.90;;;;;;4967841;28;20479;-86
2021/04/18 02:40:31;;;;;;;7.30;6.70;;;4.40;99.90;;;;;;4950054;28;20469;-85
2021/04/18 02:43:07;;;;;;;7.27;6.67;;;4.40;99.90;;;;;;4964780;28;20456;-85
2021/04/18 02:45:32;;;;;;;9.33;7.53;;;4.50;99.90;;;;;;4954395;28;20461;-86
2021/04/18 02:48:09;;;;;;;8.03;7.33;;;4.40;99.90;;;;;;4948631;28;20528;-86
2021/04/18 02:50:35;;;;;;;7.47;6.80;;;4.50;99.90;;;;;;4948969;28;20467;-85
2021/04/18 02:53:03;;;;;;;7.40;6.80;;;4.50;99.90;;;;;;4950790;28;21893;-86
2021/04/18 02:55:32;;;;;;;7.27;6.57;;;4.40;99.90;;;;;;4952519;28;20269;-86
2021/04/18 02:58:21;;;;;;;8.73;7.17;;;4.30;99.90;;;;;;4951788;28;20469;-86
2021/04/18 03:00:47;;;;;;;8.53;7.10;;;4.20;99.90;;;;;;4968869;28;20688;-86
2021/04/18 03:03:13;;;;;;;8.50;7.63;;;4.20;99.90;;;;;;4968829;28;20445;-85
2021/04/18 03:05:39;;;;;;;8.17;7.47;;;4.20;99.90;;;;;;4967551;28;20448;-85
2021/04/18 03:08:06;;;;;;;7.97;7.27;;;4.10;99.90;;;;;;4962125;28;20710;-85
2021/04/18 03:10:32;;;;;;;7.57;6.87;;;4.20;99.90;;;;;;4950676;28;20572;-85
2021/04/18 03:12:57;;;;;;;7.90;7.20;;;4.20;99.90;;;;;;4958515;28;20457;-85
2021/04/18 03:15:25;;;;;;;8.47;7.67;;;4.30;99.90;;;;;;4949699;28;22095;-85
2021/04/18 03:17:51;;;;;;;7.57;6.87;;;4.40;99.90;;;;;;4963414;28;20622;-85
2021/04/18 03:20:17;;;;;;;7.50;6.70;;;4.40;99.90;;;;;;4960636;28;20450;-85
2021/04/18 03:22:44;;;;;;;7.00;6.30;;;4.50;99.90;;;;;;4954025;28;20553;-85
2021/04/18 03:25:11;;;;;;;8.27;7.43;;;4.50;99.90;;;;;;4959368;28;20823;-85
2021/04/18 03:27:37;;;;;;;9.50;8.23;;;4.50;99.90;;;;;;4969449;28;20945;-86
2021/04/18 03:30:05;;;;;;;7.27;6.67;;;4.40;99.90;;;;;;4951585;28;20464;-85
2021/04/18 03:32:31;;;;;;;9.07;8.27;;;4.40;99.90;;;;;;4951674;28;20558;-85
2021/04/18 03:34:57;;;;;;;8.43;6.90;;;4.30;99.90;;;;;;4968056;28;20456;-85
2021/04/18 03:37:22;;;;;;;8.10;7.40;;;4.30;99.90;;;;;;4956933;28;20197;-86
2021/04/18 03:39:48;;;;;;;8.50;7.80;;;4.20;99.90;;;;;;4963683;28;20208;-86
2021/04/18 03:42:14;;;;;;;8.80;7.93;;;4.20;99.90;;;;;;4956827;28;20201;-86
2021/04/18 03:44:39;;;;;;;9.30;8.50;;;4.20;99.90;;;;;;4952002;28;20688;-86
2021/04/18 03:47:05;;;;;;;10.40;9.47;;;4.20;99.90;;;;;;4951785;28;20229;-86
2021/04/18 03:49:31;;;;;;;9.37;8.47;;;4.10;99.90;;;;;;4974598;28;20652;-86
2021/04/18 03:51:58;;;;;;;8.50;7.70;;;4.10;99.90;;;;;;4970453;28;20220;-85
2021/04/18 03:54:34;;;;;;;8.80;7.90;;;4.20;99.90;;;;;;4968377;28;20197;-85
2021/04/18 03:57:01;;;;;;;8.80;7.93;;;4.30;99.90;;;;;;4953751;28;20463;-86
2021/04/18 03:59:26;;;;;;;8.93;8.03;;;4.30;99.90;;;;;;4959927;28;20544;-85
2021/04/18 04:01:53;;;;;;;9.53;8.03;;;4.30;99.90;;;;;;4967468;28;20469;-85
2021/04/18 04:04:19;;;;;;;10.10;7.80;;;4.30;99.90;;;;;;4967814;28;20342;-85
2021/04/18 04:06:45;;;;;;;8.40;7.60;;;4.30;99.90;;;;;;4971844;28;20470;-86
2021/04/18 04:09:11;;;;;;;8.90;7.97;;;4.30;99.90;;;;;;4964761;28;20193;-85
2021/04/18 04:11:37;;;;;;;9.30;8.37;;;4.30;99.90;;;;;;4967110;28;20197;-85
2021/04/18 04:14:02;;;;;;;9.17;8.27;;;4.30;99.90;;;;;;4953460;28;20228;-85
2021/04/18 04:16:28;;;;;;;10.60;9.27;;;4.40;99.90;;;;;;4954700;28;21747;-85
2021/04/18 04:19:18;;;;;;;9.60;8.60;;;4.40;99.90;;;;;;4966192;28;20620;-86
2021/04/18 04:21:43;;;;;;;10.90;9.90;;;4.40;99.90;;;;;;4966666;28;20185;-85
2021/04/18 04:24:09;;;;;;;10.10;9.10;;;4.40;99.90;;;;;;4952978;28;20467;-85
2021/04/18 04:26:35;;;;;;;11.23;9.93;;;4.30;99.90;;;;;;4951607;28;20192;-85
2021/04/18 04:29:01;;;;;;;9.70;8.70;;;4.30;99.90;;;;;;4952759;28;20591;-85
2021/04/18 04:31:26;;;;;;;10.03;9.03;;;4.30;99.90;;;;;;4968612;28;20247;-85
2021/04/18 04:33:52;;;;;;;10.87;9.20;;;4.20;99.90;;;;;;4969849;28;20196;-85
2021/04/18 04:36:19;;;;;;;10.80;9.80;;;4.20;99.90;;;;;;4967610;28;20210;-85
2021/04/18 04:38:44;;;;;;;11.53;10.00;;;4.20;99.90;;;;;;4969772;28;20200;-85
2021/04/18 04:41:10;;;;;;;12.10;10.90;;;4.10;99.90;;;;;;4970511;28;20452;-85
2021/04/18 04:43:36;;;;;;;12.87;11.30;;;4.10;99.90;;;;;;4965452;28;20805;-85
2021/04/18 04:46:02;;;;;;;11.90;10.00;;;4.20;99.90;;;;;;4954746;28;20188;-84
2021/04/18 04:48:30;;;;;;;12.07;10.83;;;4.20;99.90;;;;;;4966377;28;20295;-86
2021/04/18 04:50:58;;;;;;;11.63;10.40;;;4.20;99.90;;;;;;4958558;28;21743;-86
2021/04/18 04:53:25;;;;;;;13.53;11.30;;;4.30;99.90;;;;;;4969495;28;20490;-86
2021/04/18 04:55:51;;;;;;;12.20;10.90;;;4.40;99.90;;;;;;4969076;28;20201;-85
2021/04/18 04:58:17;;;;;;;11.27;10.23;;;4.40;99.90;;;;;;4952173;28;20806;-86
2021/04/18 05:00:44;;;;;;;11.20;10.10;;;4.50;99.90;;;;;;4969355;28;20827;-85
2021/04/18 05:03:10;;;;;;;12.40;11.10;;;4.50;99.90;;;;;;4935538;28;20206;-86
2021/04/18 05:05:35;;;;;;;12.67;11.37;;;4.50;99.90;;;;;;4969908;28;20451;-85
2021/04/18 05:08:01;;;;;;;12.67;11.43;;;4.50;99.90;;;;;;4969030;28;20807;-85
2021/04/18 05:10:28;;;;;;;12.60;11.10;;;4.50;99.90;;;;;;4965897;28;20205;-85
2021/04/18 05:13:07;;;;;;;12.40;10.77;;;4.50;99.90;;;;;;4972053;28;20428;-85
2021/04/18 05:15:35;;;;;;;11.97;10.77;;;4.60;99.90;;;;;;4951618;28;20495;-85
2021/04/18 05:18:00;;;;;;;12.03;10.93;;;4.60;99.90;;;;;;4967962;28;20497;-85
2021/04/18 05:20:49;;;;;;;12.50;11.40;;;4.60;99.90;;;;;;4949353;28;20583;-85
2021/04/18 05:23:19;;;;;;;11.17;10.07;;;4.60;99.90;;;;;;4950940;28;20213;-85
2021/04/18 05:25:44;;;;;;;12.67;10.13;;;4.70;99.90;;;;;;4953756;28;20620;-85
2021/04/18 05:28:10;;;;;;;9.63;8.57;;;4.80;99.90;;;;;;4969826;28;20489;-85
2021/04/18 05:30:36;;;;;;;10.00;9.10;;;4.80;99.90;;;;;;4971527;28;21492;-85
2021/04/18 05:33:02;;;;;;;9.63;8.70;;;4.90;99.90;;;;;;4970268;28;20189;-85
2021/04/18 05:35:29;;;;;;;9.13;8.23;;;4.90;99.90;;;;;;4968438;28;20239;-85
2021/04/18 05:37:54;;;;;;;10.00;9.10;;;4.90;99.90;;;;;;4978873;28;20198;-85
2021/04/18 05:40:20;;;;;;;10.10;9.10;;;4.80;99.90;;;;;;4969748;28;20807;-85
2021/04/18 05:42:48;;;;;;;9.63;8.67;;;4.80;99.90;;;;;;4963521;28;20201;-85
2021/04/18 05:45:15;;;;;;;9.80;8.80;;;4.90;99.90;;;;;;4964814;28;20834;-84
2021/04/18 05:47:42;;;;;;;9.40;8.57;;;5.00;99.90;;;;;;4967053;28;20866;-85
2021/04/18 05:50:09;;;;;;;9.57;8.57;;;4.90;99.90;;;;;;4961376;28;20444;-84
2021/04/18 05:52:35;;;;;;;9.00;8.20;;;4.90;99.90;;;;;;4949690;28;20678;-85
2021/04/18 05:55:29;;;;;;;8.20;7.50;;;4.90;99.90;;;;;;4959121;28;20546;-85
2021/04/18 05:57:54;;;;;;;9.50;8.30;;;5.00;99.90;;;;;;4947038;28;20465;-85
2021/04/18 06:00:21;;;;;;;8.77;7.97;;;5.10;99.90;;;;;;4951754;28;20491;-85
2021/04/18 06:02:49;;;;;;;10.40;8.67;;;5.10;99.90;;;;;;4954198;28;20186;-85
2021/04/18 06:05:17;;;;;;;10.17;9.17;;;5.20;99.90;;;;;;4947493;28;20441;-85
2021/04/18 06:07:42;;;;;;;9.23;8.33;;;5.20;99.90;;;;;;4964118;28;21039;-84
2021/04/18 06:10:09;;;;;;;8.60;7.90;;;5.20;99.90;;;;;;4946547;28;20441;-85
2021/04/18 06:12:36;;;;;;;8.33;7.53;;;5.30;99.90;;;;;;4946147;28;20461;-85
2021/04/18 06:15:05;;;;;;;9.43;8.50;;;5.30;99.90;;;;;;4960450;28;20436;-85
2021/04/18 06:17:30;;;;;;;8.13;7.20;;;5.30;99.90;;;;;;4946236;28;20485;-84
2021/04/18 06:19:56;;;;;;;11.10;8.10;;;5.30;99.90;;;;;;4950640;28;20448;-84
2021/04/18 06:22:22;;;;;;;8.80;7.90;;;5.30;99.90;;;;;;4969212;28;20189;-84
2021/04/18 06:24:47;;;;;;;9.83;8.83;;;5.40;99.90;;;;;;4945803;28;20921;-84
2021/04/18 06:27:20;;;;;;;9.50;8.57;;;5.30;99.90;;;;;;4942452;28;20499;-85
2021/04/18 06:29:48;;;;;;;11.90;9.37;;;5.30;99.90;;;;;;4963913;28;20229;-84
2021/04/18 06:32:13;;;;;;;8.87;7.97;;;5.30;99.90;;;;;;4960224;28;20526;-85
2021/04/18 06:34:40;;;;;;;9.63;8.73;;;5.40;99.90;;;;;;4965015;28;20445;-85
2021/04/18 06:37:07;;;;;;;9.00;8.10;;;5.50;99.90;;;;;;4949302;28;20496;-88
2021/04/18 06:39:33;;;;;;;9.97;8.97;;;5.50;99.90;;;;;;4964434;28;20194;-87
2021/04/18 06:42:02;;;;;;;8.43;7.63;;;5.50;99.90;;;;;;4964432;28;20953;-88
2021/04/18 06:44:32;;;;;;;7.77;7.00;;;5.70;99.90;;;;;;4950189;28;20993;-88
2021/04/18 06:47:00;;;;;;;8.90;8.00;;;5.80;99.90;;;;;;4965958;28;20445;-87
2021/04/18 06:49:27;;;;;;;8.90;8.00;;;5.80;99.90;;;;;;4961306;28;20539;-87
2021/04/18 06:51:53;;;;;;;11.53;8.77;;;5.90;99.90;;;;;;4965873;28;20816;-88
2021/04/18 06:54:19;;;;;;;9.23;8.33;;;5.70;99.90;;;;;;4964426;28;20449;-87
2021/04/18 06:56:45;;;;;;;9.00;8.10;;;5.60;99.90;;;;;;4940830;28;20446;-86
2021/04/18 06:59:11;;;;;;;10.10;9.20;;;5.60;99.90;;;;;;4941640;28;20508;-84
2021/04/18 07:01:37;;;;;;;9.70;8.77;;;5.50;99.90;;;;;;4965183;28;20817;-82
2021/04/18 07:04:12;;;;;;;10.07;9.17;;;5.50;99.90;;;;;;4945242;28;20201;-82
2021/04/18 07:06:39;;;;;;;10.37;9.37;;;5.60;99.90;;;;;;4957263;28;20200;-84
2021/04/18 07:09:05;;;;;;;9.40;8.60;;;5.60;99.90;;;;;;4933063;28;20485;-84
2021/04/18 07:12:02;;;;;;;9.50;8.60;;;5.70;99.90;;;;;;4952161;28;20955;-85
2021/04/18 07:14:33;;;;;;;10.90;9.57;;;5.90;99.90;;;;;;4947320;28;20460;-85
2021/04/18 07:17:15;;;;;;;11.60;9.83;;;6.10;99.90;;;;;;4973914;28;20807;-84
2021/04/18 07:19:42;;;;;;;10.40;9.33;;;6.20;99.90;;;;;;4960021;28;20459;-86
2021/04/18 07:22:09;;;;;;;9.57;8.77;;;6.30;99.90;;;;;;4955949;28;20485;-85
2021/04/18 07:24:55;;;;;;;12.17;9.10;;;6.40;99.90;;;;;;4966824;28;20439;-86
2021/04/18 07:27:22;;;;;;;8.73;7.97;;;6.50;99.90;;;;;;4968193;28;20484;-85
2021/04/18 07:29:59;;;;;;;10.03;9.13;;;6.50;99.90;;;;;;4954055;28;20448;-86
2021/04/18 07:32:27;;;;;;;10.43;9.27;;;6.50;99.90;;;;;;4953424;28;20799;-85
2021/04/18 07:34:53;;;;;;;10.07;8.97;;;6.60;99.90;;;;;;4962755;28;20848;-85
2021/04/18 07:37:21;;;;;;;10.40;9.30;;;6.70;99.90;;;;;;4965108;28;20442;-86
2021/04/18 07:39:53;;;;;;;11.10;10.00;;;6.80;99.90;;;;;;4966294;28;20440;-85
2021/04/18 07:42:39;;;;;;;9.67;8.83;;;7.00;99.90;;;;;;4966138;28;20459;-85
2021/04/18 07:45:12;;;;;;;9.90;9.00;;;7.20;99.90;;;;;;4937712;28;20472;-85
2021/04/18 07:47:39;;;;;;;10.77;9.87;;;7.30;99.90;;;;;;4967646;28;20481;-84
2021/04/18 07:50:09;;;;;;;11.33;10.23;;;7.10;99.90;;;;;;4970682;28;20470;-84
2021/04/18 07:52:38;;;;;;;10.90;9.53;;;7.30;99.90;;;;;;4969946;28;20467;-85
2021/04/18 07:55:05;;;;;;;11.53;10.33;;;7.50;99.90;;;;;;4950721;28;20448;-84
2021/04/18 07:57:30;;;;;;;11.80;10.70;;;7.60;99.90;;;;;;4945621;28;20461;-84
2021/04/18 07:59:58;;;;;;;9.70;8.90;;;7.40;99.90;;;;;;4961862;28;22304;-85
2021/04/18 08:02:24;;;;;;;10.20;9.20;;;7.40;99.90;;;;;;4950204;28;20606;-85
2021/04/18 08:04:54;;;;;;;10.47;9.37;;;7.70;99.90;;;;;;4948429;28;20483;-85
2021/04/18 08:07:20;;;;;;;11.27;10.20;;;7.60;99.90;;;;;;4958708;28;20489;-85
2021/04/18 08:09:46;;;;;;;9.63;8.80;;;7.90;99.90;;;;;;4939977;28;20453;-85
2021/04/18 08:12:18;;;;;;;9.90;8.93;;;8.30;99.90;;;;;;4968033;28;21135;-84
2021/04/18 08:15:08;;;;;;;10.87;9.77;;;8.60;99.90;;;;;;4969933;28;20190;-85
2021/04/18 08:17:33;;;;;;;9.77;8.80;;;8.80;99.90;;;;;;4970013;28;20441;-84
2021/04/18 08:20:01;;;;;;;10.27;9.37;;;8.30;99.90;;;;;;4970205;28;20969;-84
2021/04/18 08:22:59;;;;;;;11.70;8.90;;;8.30;99.90;;;;;;4972329;28;20205;-81
2021/04/18 08:25:25;;;;;;;11.20;9.40;;;8.30;99.90;;;;;;4957251;28;20440;-84
2021/04/18 08:28:14;;;;;;;14.50;9.17;;;8.30;99.90;;;;;;4973533;28;20472;-82
2021/04/18 08:31:00;;;;;;;12.60;9.10;;;8.20;99.90;;;;;;4971390;28;20200;-82
2021/04/18 08:33:44;;;;;;;11.80;8.80;;;8.20;99.90;;;;;;4980125;28;20534;-83
2021/04/18 08:36:22;;;;;;;13.10;9.23;;;8.00;99.90;;;;;;4941369;28;20476;-82
2021/04/18 08:39:08;;;;;;;12.53;6.83;;;7.70;99.90;;;;;;4976887;28;20852;-85
2021/04/18 08:41:39;;;;;;;10.00;7.60;;;7.30;99.90;;;;;;4917786;28;22009;-85
2021/04/18 08:44:43;;;;;;;9.60;7.47;;;7.30;99.90;;;;;;4966269;28;20702;-87
2021/04/18 08:47:21;;;;;;;12.60;8.13;;;7.20;99.90;;;;;;4961291;28;20474;-86
2021/04/18 08:49:49;;;;;;;14.87;7.57;;;7.40;99.90;;;;;;4966255;28;20873;-86
2021/04/18 08:52:24;;;;;;;13.17;7.80;;;7.80;99.90;;;;;;4952655;28;21512;-86
2021/04/18 08:54:51;;;;;;;8.77;7.67;;;8.00;99.90;;;;;;4969021;28;20444;-86
2021/04/18 08:57:20;;;;;;;10.10;8.57;;;8.30;99.90;;;;;;4966196;28;20438;-86
2021/04/18 08:59:54;;;;;;;8.80;7.60;;;8.50;99.90;;;;;;4969290;28;20434;-87
2021/04/18 09:02:21;;;;;;;11.17;7.93;;;9.00;99.90;;;;;;4966535;28;20545;-86
2021/04/18 09:04:52;;;;;;;11.03;9.33;;;8.90;99.90;;;;;;4952892;28;20823;-87
2021/04/18 09:07:24;;;;;;;11.00;8.70;;;8.90;99.90;;;;;;4951206;28;20858;-87
2021/04/18 09:09:51;;;;;;;9.90;8.13;;;9.10;99.90;;;;;;4953237;28;20449;-86
2021/04/18 09:12:18;;;;;;;10.00;8.00;;;9.30;99.90;;;;;;4966555;28;20481;-90
2021/04/18 09:14:54;;;;;;;8.57;7.80;;;9.10;99.90;;;;;;4968109;28;23751;-88
2021/04/18 09:17:30;;;;;;;10.63;8.40;;;9.00;99.90;;;;;;4953554;28;20464;-87
2021/04/18 09:20:03;;;;;;;9.63;7.67;;;8.80;99.90;;;;;;4952905;28;20461;-88
2021/04/18 09:22:31;;;;;;;11.17;7.80;;;8.70;99.90;;;;;;4953035;28;20452;-88
2021/04/18 09:25:06;;;;;;;8.43;7.60;;;8.70;99.90;;;;;;4959469;28;20445;-88
2021/04/18 09:27:45;;;;;;;9.33;8.43;;;8.60;99.90;;;;;;4946565;28;21449;-87
2021/04/18 09:30:16;;;;;;;8.47;7.70;;;8.60;99.90;;;;;;4951014;28;20458;-87
2021/04/18 09:32:48;;;;;;;9.10;8.10;;;8.50;99.90;;;;;;4951833;28;20458;-88
2021/04/18 09:35:19;;;;;;;11.03;8.63;;;8.30;99.90;;;;;;4965914;28;20516;-88
2021/04/18 09:38:02;;;;;;;8.10;7.27;;;8.30;99.90;;;;;;4951519;28;20440;-88
2021/04/18 09:40:34;;;;;;;7.73;6.93;;;8.50;99.90;;;;;;4969244;28;20560;-88
2021/04/18 09:43:02;;;;;;;10.80;6.90;;;8.80;99.90;;;;;;4952806;28;20464;-88
2021/04/18 09:45:30;;;;;;;7.67;6.97;;;8.80;99.90;;;;;;4950828;28;20535;-88
2021/04/18 09:48:11;;;;;;;10.73;7.17;;;8.70;99.90;;;;;;4967777;28;20580;-88
2021/04/18 09:50:37;;;;;;;8.57;7.27;;;8.80;99.90;;;;;;4952678;28;20463;-88
2021/04/18 09:53:24;;;;;;;7.97;6.50;;;8.80;99.90;;;;;;4951686;28;20453;-88
2021/04/18 09:56:03;;;;;;;7.80;6.80;;;8.70;99.90;;;;;;4948087;28;20207;-90
2021/04/18 09:58:35;;;;;;;7.20;6.50;;;8.70;99.90;;;;;;4951228;28;20551;-90
2021/04/18 10:01:03;;;;;;;10.87;8.07;;;8.90;99.90;;;;;;4968357;28;20450;-89
2021/04/18 10:03:45;;;;;;;7.90;7.10;;;9.00;99.90;;;;;;4964465;28;20666;-89
2021/04/18 10:06:11;;;;;;;10.30;7.37;;;9.00;99.90;;;;;;4961269;28;20880;-90
2021/04/18 10:08:38;;;;;;;9.57;8.20;;;9.30;99.90;;;;;;4966804;28;21022;-90
2021/04/18 10:11:07;;;;;;;10.03;8.30;;;9.40;99.90;;;;;;4965933;28;20595;-90
2021/04/18 10:13:39;;;;;;;11.07;8.10;;;9.40;99.90;;;;;;4963995;28;20453;-90
2021/04/18 10:16:07;;;;;;;10.13;7.63;;;9.40;99.90;;;;;;4957560;28;20445;-89
2021/04/18 10:18:35;;;;;;;9.30;7.30;;;9.50;99.90;;;;;;4953118;28;21425;-90
2021/04/18 10:21:22;;;;;;;9.33;7.93;;;9.30;99.90;;;;;;4962495;28;20441;-90
2021/04/18 10:23:50;;;;;;;9.60;7.57;;;9.30;99.90;;;;;;4950605;28;20457;-90
2021/04/18 10:26:25;;;;;;;10.23;7.73;;;9.30;99.90;;;;;;4965064;28;20585;-89
2021/04/18 10:28:53;;;;;;;10.00;7.10;;;9.50;99.90;;;;;;4965093;28;20515;-90
2021/04/18 10:31:21;;;;;;;14.90;8.73;;;9.50;99.90;;;;;;4949018;28;20482;-91
2021/04/18 10:33:47;;;;;;;10.10;8.10;;;9.70;99.90;;;;;;4947865;28;20438;-91
2021/04/18 10:36:14;;;;;;;10.70;8.80;;;10.00;99.90;;;;;;4949455;28;20989;-90
2021/04/18 10:38:40;;;;;;;11.13;9.17;;;9.50;99.90;;;;;;4964001;28;20441;-90
2021/04/18 10:41:07;;;;;;;9.73;8.67;;;8.80;99.90;;;;;;4966032;28;20457;-90
2021/04/18 10:43:33;;;;;;;11.30;9.87;;;8.70;99.90;;;;;;4940651;28;20436;-89
2021/04/18 10:45:59;;;;;;;9.80;8.87;;;9.20;99.90;;;;;;4959114;28;21649;-91
2021/04/18 10:48:24;;;;;;;11.33;8.67;;;9.00;99.90;;;;;;4945820;28;20485;-90
2021/04/18 10:50:51;;;;;;;11.80;9.40;;;9.40;99.90;;;;;;4951583;28;20673;-91
2021/04/18 10:53:18;;;;;;;11.20;9.53;;;10.10;99.90;;;;;;4965272;28;20200;-89
2021/04/18 10:55:43;;;;;;;8.90;8.00;;;10.60;99.90;;;;;;4950066;28;21062;-91
2021/04/18 10:58:47;;;;;;;10.83;9.00;;;10.80;99.00;;;;;;4953598;28;20450;-93
2021/04/18 11:01:28;;;;;;;12.90;9.53;;;10.90;99.90;;;;;;4970573;28;20395;-92
2021/04/18 11:06:57;;;;;;;10.10;8.77;;;10.60;99.20;;;;;;4953872;28;20691;-94
2021/04/18 11:09:22;;;;;;;10.63;8.83;;;10.20;99.80;;;;;;4952561;28;20462;-90
2021/04/18 11:11:48;;;;;;;10.13;9.13;;;10.20;99.50;;;;;;4959711;28;20434;-85
2021/04/18 11:14:14;;;;;;;10.20;8.60;;;9.90;99.90;;;;;;4949439;28;20260;-86
2021/04/18 11:16:39;;;;;;;15.73;8.83;;;9.90;99.90;;;;;;4961034;28;20192;-88
2021/04/18 11:19:06;;;;;;;9.73;8.70;;;10.10;99.10;;;;;;4951621;28;20735;-88
2021/04/18 11:21:32;;;;;;;9.43;8.53;;;10.20;99.10;;;;;;4961899;28;20550;-88
2021/04/18 11:23:57;;;;;;;9.87;8.07;;;9.60;99.70;;;;;;4970417;28;20458;-86
2021/04/18 11:26:24;;;;;;;12.10;7.63;;;8.80;99.90;;;;;;4962134;28;20529;-87
2021/04/18 11:28:50;;;;;;;10.73;8.67;;;8.60;99.90;;;;;;4958473;28;20759;-87
2021/04/18 11:31:17;;;;;;;10.87;8.23;;;8.80;99.90;;;;;;4953814;28;20452;-86
2021/04/18 11:33:43;;;;;;;9.87;8.27;;;9.30;99.90;;;;;;4963114;28;20453;-87
2021/04/18 11:36:09;;;;;;;9.80;8.10;;;9.50;99.90;;;;;;4949447;28;20440;-86
2021/04/18 11:38:35;;;;;;;9.17;8.23;;;9.70;99.90;;;;;;4966100;28;20453;-86
2021/04/18 11:41:01;;;;;;;9.17;7.83;;;9.70;99.90;;;;;;4953469;28;20834;-86
2021/04/18 11:43:26;;;;;;;9.33;8.23;;;9.90;99.90;;;;;;4967035;28;20209;-86
2021/04/18 11:45:52;;;;;;;8.70;7.80;;;10.10;99.20;;;;;;4953882;28;20447;-85
2021/04/18 11:48:18;;;;;;;8.70;7.10;;;10.50;98.10;;;;;;4964991;28;20231;-86
2021/04/18 11:50:44;;;;;;;9.73;8.60;;;11.00;96.60;;;;;;4952378;28;20868;-86
2021/04/18 11:53:10;;;;;;;8.77;7.87;;;11.50;95.50;;;;;;4948270;28;20465;-88
2021/04/18 11:55:37;;;;;;;9.60;8.00;;;11.60;94.90;;;;;;4950731;28;20632;-85
2021/04/18 11:58:05;;;;;;;11.27;8.10;;;12.20;95.40;;;;;;4946299;28;20452;-88
2021/04/18 12:00:30;;;;;;;8.67;7.77;;;12.60;94.50;;;;;;4953867;28;20822;-88
2021/04/18 12:02:56;;;;;;;9.03;8.13;;;12.70;92.90;;;;;;4971169;28;20463;-89
2021/04/18 12:05:22;;;;;;;9.83;8.43;;;12.70;92.60;;;;;;4969630;28;20216;-89
2021/04/18 12:07:48;;;;;;;9.23;7.70;;;12.40;93.70;;;;;;4970496;28;20225;-88
2021/04/18 12:10:14;;;;;;;9.37;8.40;;;12.00;94.20;;;;;;4957716;28;20444;-88
2021/04/18 12:12:40;;;;;;;9.50;8.60;;;11.50;94.90;;;;;;4957038;28;20189;-89
2021/04/18 12:15:13;;;;;;;9.77;8.50;;;11.20;94.10;;;;;;4970968;28;20805;-89
2021/04/18 12:17:39;;;;;;;9.23;7.13;;;11.10;94.70;;;;;;4969900;28;20461;-89
2021/04/18 12:20:07;;;;;;;8.83;7.93;;;11.20;97.10;;;;;;4967790;28;20449;-87
2021/04/18 12:22:33;;;;;;;10.83;8.90;;;11.40;95.60;;;;;;4971429;28;20460;-88
2021/04/18 12:24:59;;;;;;;9.40;8.50;;;11.10;94.90;;;;;;4967266;28;20495;-88
2021/04/18 12:27:25;;;;;;;9.03;8.13;;;11.00;95.30;;;;;;4956076;28;20233;-88
2021/04/18 12:29:53;;;;;;;11.83;8.03;;;11.30;93.90;;;;;;4972930;28;20441;-88
2021/04/18 12:32:20;;;;;;;9.10;8.20;;;11.90;93.20;;;;;;4952343;28;20461;-89
2021/04/18 12:34:45;;;;;;;11.07;8.70;;;12.30;92.40;;;;;;4965740;28;20449;-87
2021/04/18 12:37:11;;;;;;;9.40;7.17;;;12.60;91.50;;;;;;4951038;28;21033;-87
2021/04/18 12:39:38;;;;;;;8.70;7.87;;;12.90;92.30;;;;;;4978954;28;20680;-88
2021/04/18 12:42:04;;;;;;;9.63;8.33;;;12.60;92.50;;;;;;4957425;28;20586;-88
2021/04/18 12:44:30;;;;;;;9.10;7.60;;;12.50;93.70;;;;;;4972038;28;20871;-88
2021/04/18 12:46:57;;;;;;;9.07;8.17;;;13.00;93.20;;;;;;4971020;28;21052;-88
2021/04/18 12:49:23;;;;;;;10.80;8.47;;;13.10;91.40;;;;;;4955063;28;20519;-88
2021/04/18 12:51:49;;;;;;;9.90;8.13;;;12.60;92.60;;;;;;4973296;28;20201;-89
2021/04/18 12:54:15;;;;;;;9.30;7.33;;;13.40;93.90;;;;;;4973270;28;20314;-88
2021/04/18 12:56:40;;;;;;;9.50;8.60;;;14.20;91.40;;;;;;4968838;28;20295;-87
2021/04/18 12:59:06;;;;;;;8.80;7.87;;;15.20;88.40;;;;;;4954493;28;20320;-87
2021/04/18 13:01:31;;;;;;;9.20;8.30;;;15.50;85.30;;;;;;4968165;28;20285;-88
2021/04/18 13:03:58;;;;;;;9.60;8.70;;;15.20;84.00;;;;;;4953697;28;20704;-88